Time;durP1;ratioP1;P1;durP2;ratioP2;P2;SDS_P1;SDS_P2;PMS_P1;PMS_P2;Temp;Humidity;BMP_temperature;BMP_pressure;BME280_temperature;BME280_humidity;BME280_pressure;Samples;Min_cycle;Max_cycle;Signal;HPM_P1;HPM_P2
2021/06/04 05:03:04;;;;;;;4.75;2.60;;;;;;;24.15;33.89;100712.34;1843987;77;22865;-71
2021/06/04 05:05:32;;;;;;;4.78;3.00;;;;;;;24.29;33.25;100713.62;1816873;78;20928;-71
2021/06/04 05:07:59;;;;;;;9.25;3.08;;;;;;;24.34;32.96;100721.48;1819392;78;21145;-71
2021/06/04 05:10:28;;;;;;;5.05;3.27;;;;;;;24.40;33.00;100705.34;1807514;78;20930;-71
2021/06/04 05:12:55;;;;;;;9.98;2.95;;;;;;;24.48;32.80;100714.70;1813913;78;21424;-71
2021/06/04 05:15:27;;;;;;;6.55;2.95;;;;;;;24.47;32.67;100712.53;1816466;78;21005;-71
2021/06/04 05:17:54;;;;;;;5.40;3.10;;;;;;;24.44;32.46;100715.52;1824079;78;20976;-71
2021/06/04 05:20:22;;;;;;;5.03;3.30;;;;;;;24.52;33.15;100712.06;1812994;78;21726;-70
2021/06/04 05:22:50;;;;;;;5.85;3.00;;;;;;;24.71;32.92;100722.97;1814683;78;20879;-71
2021/06/04 05:25:21;;;;;;;10.18;3.67;;;;;;;24.89;32.81;100717.02;1811147;78;20986;-71
2021/06/04 05:27:50;;;;;;;5.47;3.00;;;;;;;25.12;31.09;100709.30;1816787;78;20927;-70
2021/06/04 05:30:22;;;;;;;4.75;3.10;;;;;;;25.13;31.49;100710.47;1811800;78;21496;-71
2021/06/04 05:32:50;;;;;;;5.92;2.90;;;;;;;25.20;31.90;100712.79;1752822;81;21129;-65
2021/06/04 05:35:17;;;;;;;3.50;2.90;;;;;;;25.31;31.58;100706.31;1777386;80;20898;-67
2021/06/04 05:37:44;;;;;;;5.65;2.75;;;;;;;25.40;31.50;100725.83;1757845;80;22052;-69
2021/06/04 05:40:20;;;;;;;4.03;2.72;;;;;;;25.45;31.77;100721.67;1778241;79;20911;-68
2021/06/04 05:42:48;;;;;;;4.55;3.15;;;;;;;25.55;31.07;100712.18;1791031;79;20931;-70
2021/06/04 05:45:18;;;;;;;4.47;2.52;;;;;;;25.70;30.69;100721.69;1791250;79;22160;-67
2021/06/04 05:47:47;;;;;;;5.08;2.98;;;;;;;25.80;30.29;100715.19;1793680;79;21017;-67
2021/06/04 05:50:19;;;;;;;9.45;2.85;;;;;;;25.75;30.21;100715.36;1756293;81;20946;-65
2021/06/04 05:52:46;;;;;;;12.47;3.27;;;;;;;25.77;30.24;100716.86;1769068;80;20979;-66
2021/06/04 05:55:15;;;;;;;9.75;3.10;;;;;;;25.85;30.28;100722.19;1776678;80;20987;-64
2021/06/04 05:57:42;;;;;;;6.25;2.60;;;;;;;25.90;29.86;100721.19;1782446;80;21091;-65
2021/06/04 06:00:14;;;;;;;5.35;2.62;;;;;;;25.96;29.54;100718.35;1779254;80;20985;-66
2021/06/04 06:02:42;;;;;;;4.22;2.67;;;;;;;25.99;29.30;100717.19;1745132;81;20945;-68
2021/06/04 06:05:11;;;;;;;5.53;2.50;;;;;;;25.97;29.18;100713.84;1730375;80;20945;-68
2021/06/04 06:07:38;;;;;;;10.13;2.90;;;;;;;26.05;29.36;100713.81;1739299;80;20957;-67
2021/06/04 06:10:08;;;;;;;3.27;2.40;;;;;;;26.27;29.16;100715.77;1767969;79;20955;-65
2021/06/04 06:12:35;;;;;;;4.37;2.85;;;;;;;26.48;28.44;100715.22;1750269;79;21589;-64
2021/06/04 06:15:04;;;;;;;9.58;2.40;;;;;;;26.56;28.22;100711.19;1771863;79;21143;-67
2021/06/04 06:17:33;;;;;;;8.18;3.40;;;;;;;26.46;28.33;100703.88;1765513;81;20892;-65
2021/06/04 06:20:01;;;;;;;10.82;4.35;;;;;;;26.31;29.33;100706.45;1762497;79;20912;-70
2021/06/04 06:22:30;;;;;;;7.17;4.05;;;;;;;26.36;29.68;100705.44;1735877;81;21797;-70
2021/06/04 06:24:58;;;;;;;6.22;3.40;;;;;;;26.57;28.82;100705.67;1763811;80;20971;-66
2021/06/04 06:27:27;;;;;;;4.97;2.30;;;;;;;26.68;27.51;100707.14;1762949;80;21070;-65
2021/06/04 06:29:54;;;;;;;7.10;2.95;;;;;;;26.63;27.88;100706.83;1773578;80;20924;-69
2021/06/04 06:32:21;;;;;;;4.78;2.50;;;;;;;26.62;27.72;100707.83;1774667;80;21002;-70
2021/06/04 06:34:49;;;;;;;8.63;2.90;;;;;;;26.65;27.15;100705.31;1765299;80;21137;-72
2021/06/04 06:37:16;;;;;;;5.08;2.47;;;;;;;26.62;27.06;100704.33;1759098;80;21488;-66
2021/06/04 06:39:44;;;;;;;7.72;2.62;;;;;;;26.55;26.59;100698.84;1760516;80;21505;-67
2021/06/04 06:42:11;;;;;;;3.67;2.25;;;;;;;26.47;26.86;100702.88;1763912;79;20892;-66
2021/06/04 06:44:38;;;;;;;8.23;2.70;;;;;;;26.29;26.04;100709.77;1739358;82;21006;-66
2021/06/04 06:47:05;;;;;;;11.65;2.37;;;;;;;26.03;26.79;100711.31;1740484;82;21194;-67
2021/06/04 06:49:33;;;;;;;3.30;2.30;;;;;;;25.83;27.00;100713.52;1758369;80;21053;-68
2021/06/04 06:52:00;;;;;;;10.85;2.90;;;;;;;25.74;26.87;100710.52;1755261;81;21446;-68
2021/06/04 06:54:30;;;;;;;2.75;2.25;;;;;;;25.70;27.45;100712.36;1762120;79;20909;-66
2021/06/04 06:56:59;;;;;;;9.08;2.80;;;;;;;25.70;28.12;100709.69;1800064;79;21470;-64
2021/06/04 06:59:29;;;;;;;5.80;1.82;;;;;;;25.77;27.89;100712.02;1800860;79;21128;-66
2021/06/04 07:02:00;;;;;;;6.78;2.17;;;;;;;25.98;26.97;100709.68;1734400;82;21573;-66
2021/06/04 07:04:30;;;;;;;10.08;2.60;;;;;;;26.19;26.43;100709.12;1760796;81;20908;-65
2021/06/04 07:06:57;;;;;;;4.80;2.10;;;;;;;26.33;26.25;100705.78;1751352;81;20904;-72
2021/06/04 07:09:24;;;;;;;5.95;2.17;;;;;;;26.52;26.46;100705.86;1802596;79;20963;-71
2021/06/04 07:11:54;;;;;;;7.72;2.30;;;;;;;26.61;26.55;100699.99;1814646;79;21398;-69
2021/06/04 07:14:26;;;;;;;3.00;1.92;;;;;;;26.68;26.40;100704.97;1807900;79;21426;-69
2021/06/04 07:16:53;;;;;;;8.15;2.00;;;;;;;26.90;24.41;100721.05;1811175;79;20978;-70
2021/06/04 07:19:21;;;;;;;7.97;2.30;;;;;;;27.08;23.83;100707.45;1801156;79;20955;-66
2021/06/04 07:21:48;;;;;;;6.05;2.12;;;;;;;27.18;23.41;100721.43;1799712;79;21493;-71
2021/06/04 07:24:21;;;;;;;8.65;2.10;;;;;;;27.15;23.08;100708.41;1800941;79;21283;-68
2021/06/04 07:26:52;;;;;;;4.90;2.25;;;;;;;27.03;23.48;100710.33;1801297;79;21042;-66
2021/06/04 07:29:20;;;;;;;5.47;2.20;;;;;;;26.92;23.73;100708.84;1801895;79;21048;-69
2021/06/04 07:31:49;;;;;;;8.00;2.42;;;;;;;26.89;24.20;100707.85;1801810;78;20998;-67
2021/06/04 07:34:17;;;;;;;11.18;2.58;;;;;;;26.91;24.67;100700.50;1802069;79;21078;-66
2021/06/04 07:36:49;;;;;;;9.53;2.37;;;;;;;27.07;24.92;100711.64;1804863;79;21922;-68
2021/06/04 07:39:20;;;;;;;2.65;2.00;;;;;;;27.15;23.51;100701.73;1737726;82;21003;-69
2021/06/04 07:41:47;;;;;;;9.05;3.47;;;;;;;26.98;23.42;100704.16;1739192;82;20995;-67
2021/06/04 07:44:15;;;;;;;4.15;2.15;;;;;;;26.57;23.15;100701.67;1737842;82;21540;-69
2021/06/04 07:46:43;;;;;;;8.78;2.30;;;;;;;26.27;22.97;100705.59;1750973;81;21119;-72
2021/06/04 07:49:11;;;;;;;6.87;2.00;;;;;;;26.12;23.18;100698.78;1804800;79;21068;-75
2021/06/04 07:51:42;;;;;;;10.55;2.40;;;;;;;26.10;23.78;100698.13;1804761;79;20935;-72
2021/06/04 07:54:11;;;;;;;2.60;2.20;;;;;;;26.05;23.63;100704.47;1804651;79;20931;-71
2021/06/04 07:56:40;;;;;;;9.13;2.15;;;;;;;25.95;23.98;100693.17;1804613;79;20951;-72
2021/06/04 07:59:08;;;;;;;1.95;1.82;;;;;;;25.69;24.04;100696.85;1733615;82;20904;-70
2021/06/04 08:01:39;;;;;;;6.78;2.17;;;;;;;25.47;24.18;100694.84;1734214;82;21872;-67
2021/06/04 08:04:06;;;;;;;4.40;2.10;;;;;;;25.32;24.03;100687.16;1736869;82;21486;-69
2021/06/04 08:06:34;;;;;;;16.23;2.83;;;;;;;24.95;24.63;100689.73;1745491;82;21182;-69
2021/06/04 08:09:01;;;;;;;5.25;2.22;;;;;;;24.57;25.27;100689.29;1735280;82;21126;-69
2021/06/04 08:11:33;;;;;;;9.20;2.27;;;;;;;24.34;26.10;100691.36;1739884;82;21569;-70
2021/06/04 08:14:04;;;;;;;5.62;2.22;;;;;;;24.23;25.85;100700.41;1727201;82;21144;-66
2021/06/04 08:16:31;;;;;;;6.60;2.37;;;;;;;24.15;25.86;100690.55;1740472;82;21002;-69
2021/06/04 08:19:00;;;;;;;3.47;2.10;;;;;;;24.18;25.79;100684.92;1740263;82;21494;-70
2021/06/04 08:21:33;;;;;;;5.75;2.17;;;;;;;24.28;25.84;100682.67;1734604;82;20948;-69
2021/06/04 08:24:00;;;;;;;4.42;2.10;;;;;;;24.28;25.38;100687.50;1741543;79;20946;-67
2021/06/04 08:26:31;;;;;;;5.28;2.15;;;;;;;24.25;25.19;100688.66;1782424;79;22374;-69
2021/06/04 08:28:58;;;;;;;6.55;2.12;;;;;;;24.29;25.46;100672.37;1736548;82;20999;-67
2021/06/04 08:31:26;;;;;;;5.00;2.00;;;;;;;24.39;25.99;100674.42;1736187;82;20983;-67
2021/06/04 08:33:53;;;;;;;4.97;1.87;;;;;;;24.48;25.65;100674.27;1735130;82;20876;-70
2021/06/04 08:36:31;;;;;;;8.60;2.40;;;;;;;24.37;25.43;100672.41;1737287;82;20995;-66
2021/06/04 08:39:01;;;;;;;6.65;2.90;;;;;;;24.24;26.10;100674.14;1740845;82;21114;-70
2021/06/04 08:42:07;;;;;;;11.10;2.25;;;;;;;24.11;25.80;100677.72;1738544;82;21007;-68
2021/06/04 08:45:14;;;;;;;15.28;2.52;;;;;;;24.09;26.37;100675.71;1804799;79;20962;-66
2021/06/04 08:47:43;;;;;;;5.83;2.05;;;;;;;24.20;26.36;100666.13;1811715;79;21472;-68
2021/06/04 08:50:18;;;;;;;4.92;1.87;;;;;;;24.31;26.77;100664.56;1782256;79;21037;-66
2021/06/04 08:52:54;;;;;;;;;;;;;;;24.33;26.79;100667.91;1774871;79;21129;-68
2021/06/04 08:55:44;;;;;;;7.45;2.42;;;;;;;24.19;26.51;100667.95;1741420;82;20142;-65
2021/06/04 08:58:41;;;;;;;2.42;1.72;;;;;;;23.94;26.66;100663.02;1745703;82;20899;-64
2021/06/04 09:01:21;;;;;;;5.20;2.35;;;;;;;23.83;26.95;100664.59;1732022;82;20955;-64
2021/06/04 09:04:07;;;;;;;5.75;2.05;;;;;;;23.85;27.28;100644.00;1742094;82;21050;-65
2021/06/04 09:06:58;;;;;;;7.92;2.42;;;;;;;23.88;27.67;100658.31;1736028;82;21985;-66
2021/06/04 09:09:48;;;;;;;5.90;2.20;;;;;;;23.94;27.46;100652.87;1742731;82;21022;-68
2021/06/04 09:12:19;;;;;;;3.60;2.22;;;;;;;23.85;26.84;100650.64;1776317;79;20934;-67
2021/06/04 09:14:49;;;;;;;3.50;1.70;;;;;;;23.71;27.16;100647.22;1775498;80;20975;-66
2021/06/04 09:17:35;;;;;;;6.10;2.42;;;;;;;23.72;27.84;100649.38;1799265;79;21534;-66
2021/06/04 09:20:15;;;;;;;2.92;1.95;;;;;;;23.70;27.27;100653.52;1802029;79;21941;-68
2021/06/04 09:22:46;;;;;;;4.65;2.10;;;;;;;23.59;27.01;100653.27;1802115;79;20888;-69
2021/06/04 09:25:18;;;;;;;3.58;2.27;;;;;;;23.47;26.64;100649.68;1737467;82;21058;-70
2021/06/04 09:27:49;;;;;;;6.58;2.25;;;;;;;23.39;27.18;100645.62;1749970;81;20991;-67
2021/06/04 09:30:21;;;;;;;4.50;2.20;;;;;;;23.45;27.27;100639.69;1750324;81;20986;-67
2021/06/04 09:33:34;;;;;;;2.58;1.60;;;;;;;23.60;27.64;100639.48;1746928;81;21484;-67
2021/06/04 09:36:06;;;;;;;8.00;2.12;;;;;;;23.69;26.77;100647.87;1746841;82;21493;-67
2021/06/04 09:38:50;;;;;;;5.28;2.17;;;;;;;23.66;27.55;100650.84;1749045;81;20891;-67
2021/06/04 09:41:31;;;;;;;9.98;2.33;;;;;;;23.50;27.77;100640.91;1752324;81;20991;-70
2021/06/04 09:44:09;;;;;;;5.03;1.70;;;;;;;23.26;28.12;100649.98;1749327;81;20990;-68
2021/06/04 09:47:09;;;;;;;7.08;1.85;;;;;;;23.01;28.14;100644.13;1757533;81;21130;-66
2021/06/04 09:49:44;;;;;;;5.72;1.90;;;;;;;22.90;28.67;100635.88;1756132;81;20990;-67
2021/06/04 09:52:27;;;;;;;;;;;;;;;22.95;28.46;100644.23;1800651;79;20916;-66
2021/06/04 09:55:26;;;;;;;4.22;2.22;;;;;;;22.94;28.21;100640.73;1800859;79;20103;-66
2021/06/04 09:58:24;;;;;;;4.37;2.10;;;;;;;22.98;28.25;100635.12;1761444;79;21061;-64
2021/06/04 10:01:03;;;;;;;4.37;2.22;;;;;;;22.92;28.47;100638.72;1783183;79;20916;-66
2021/06/04 10:03:45;;;;;;;2.98;1.85;;;;;;;22.86;28.80;100633.17;1776186;79;20983;-66
2021/06/04 10:06:37;;;;;;;7.78;2.15;;;;;;;22.85;28.45;100631.50;1766619;81;20888;-64
2021/06/04 10:09:42;;;;;;;8.18;2.75;;;;;;;22.82;28.70;100632.64;1756653;81;20951;-68
2021/06/04 10:12:33;;;;;;;6.72;2.22;;;;;;;22.88;29.08;100632.05;1737881;82;20923;-63
2021/06/04 10:15:24;;;;;;;5.62;2.40;;;;;;;22.93;28.96;100624.95;1738278;82;21438;-65
2021/06/04 10:20:36;;;;;;;10.48;2.20;;;;;;;23.09;28.71;100629.10;1761243;81;20850;-65
2021/06/04 10:23:20;;;;;;;2.72;2.12;;;;;;;23.17;28.23;100630.51;1751218;82;20987;-65
2021/06/04 10:26:00;;;;;;;3.20;2.08;;;;;;;23.16;28.11;100616.88;1740048;82;21025;-66
2021/06/04 10:28:39;;;;;;;3.33;2.00;;;;;;;23.20;28.46;100620.88;1722149;83;21544;-65
2021/06/04 10:31:20;;;;;;;5.40;2.12;;;;;;;23.31;28.81;100626.45;1721053;83;21026;-67
2021/06/04 10:34:36;;;;;;;5.85;2.08;;;;;;;23.34;28.08;100622.66;1722687;82;20951;-65
2021/06/04 10:37:04;;;;;;;4.25;2.08;;;;;;;23.38;28.18;100622.69;1722874;82;21002;-65
2021/06/04 10:39:46;;;;;;;6.53;1.98;;;;;;;23.42;28.62;100627.55;1722888;83;20973;-65
2021/06/04 10:42:27;;;;;;;6.50;2.05;;;;;;;23.42;28.50;100628.04;1722973;82;21033;-65
2021/06/04 10:45:33;;;;;;;6.28;2.17;;;;;;;23.37;27.98;100623.67;1722638;83;20938;-65
2021/06/04 10:48:17;;;;;;;5.45;1.70;;;;;;;23.34;28.79;100622.16;1723272;82;20938;-67
2021/06/04 10:50:52;;;;;;;4.67;2.00;;;;;;;23.36;27.45;100632.64;1722766;82;20914;-67
2021/06/04 10:53:42;;;;;;;8.58;2.35;;;;;;;23.36;27.38;100624.66;1722873;83;20907;-65
2021/06/04 10:56:27;;;;;;;4.03;1.90;;;;;;;23.43;27.64;100613.77;1725215;82;21140;-69
2021/06/04 10:59:22;;;;;;;4.80;2.22;;;;;;;23.57;28.29;100620.72;1707301;84;20936;-70
2021/06/04 11:01:57;;;;;;;4.03;2.30;;;;;;;23.61;27.89;100631.85;1724451;82;21568;-67
2021/06/04 11:04:37;;;;;;;;;;;;;;;23.52;27.76;100620.81;1708467;82;21049;-68
2021/06/04 11:07:25;;;;;;;3.37;2.37;;;;;;;23.55;27.78;100620.05;1727706;82;20122;-70
2021/06/04 11:10:33;;;;;;;3.92;2.12;;;;;;;23.64;27.38;100619.58;1731562;82;22206;-68
2021/06/04 11:13:39;;;;;;;6.50;2.27;;;;;;;23.80;27.07;100609.05;1736149;82;21013;-69
2021/06/04 11:16:59;;;;;;;5.90;2.15;;;;;;;24.01;26.70;100621.12;1736499;82;21073;-68
2021/06/04 11:19:39;;;;;;;3.02;2.25;;;;;;;24.04;27.21;100616.31;1712590;82;21129;-68
2021/06/04 11:22:17;;;;;;;4.25;2.50;;;;;;;23.88;26.84;100622.41;1735639;82;21070;-69
2021/06/04 11:24:58;;;;;;;7.72;2.60;;;;;;;23.64;27.37;100622.23;1741946;82;21286;-68
2021/06/04 11:27:38;;;;;;;4.90;2.20;;;;;;;23.46;28.22;100612.96;1742169;82;21529;-68
2021/06/04 11:30:15;;;;;;;4.35;2.10;;;;;;;23.41;28.12;100613.91;1733931;82;21031;-68
2021/06/04 11:33:08;;;;;;;2.25;1.90;;;;;;;23.40;28.58;100610.08;1731527;82;20900;-70
2021/06/04 11:35:43;;;;;;;3.33;2.02;;;;;;;23.47;28.01;100611.14;1736822;81;21528;-69
2021/06/04 11:38:28;;;;;;;4.35;1.72;;;;;;;23.50;27.68;100612.99;1731734;82;21102;-70
2021/06/04 11:41:00;;;;;;;5.65;2.17;;;;;;;23.45;28.27;100613.95;1722235;81;21002;-68
2021/06/04 11:43:33;;;;;;;9.70;2.37;;;;;;;23.37;28.43;100617.03;1724762;82;21577;-70
2021/06/04 11:46:22;;;;;;;7.92;2.33;;;;;;;23.32;28.53;100611.34;1727405;82;21187;-68
2021/06/04 11:48:59;;;;;;;5.50;1.95;;;;;;;23.30;28.78;100614.16;1729995;82;20856;-69
2021/06/04 11:51:30;;;;;;;5.45;2.37;;;;;;;23.37;28.70;100615.20;1728872;82;21128;-69
2021/06/04 11:54:27;;;;;;;4.40;2.15;;;;;;;23.41;28.48;100609.09;1737717;82;21503;-69
2021/06/04 11:57:07;;;;;;;9.75;2.30;;;;;;;23.44;29.83;100611.44;1710369;82;20860;-68
2021/06/04 11:59:50;;;;;;;2.70;1.65;;;;;;;23.42;30.50;100612.09;1747556;82;20960;-67
2021/06/04 12:02:38;;;;;;;3.40;2.10;;;;;;;23.39;30.95;100619.87;1746953;82;20986;-67
2021/06/04 12:05:22;;;;;;;2.80;2.02;;;;;;;23.36;30.28;100620.19;1741254;81;21320;-67
2021/06/04 12:08:23;;;;;;;4.50;2.02;;;;;;;23.28;30.33;100614.30;1726185;82;20938;-68
2021/06/04 12:10:56;;;;;;;3.05;2.33;;;;;;;23.26;30.76;100617.61;1736756;82;21013;-71
2021/06/04 12:13:54;;;;;;;5.90;1.90;;;;;;;23.23;29.77;100609.94;1739955;82;20990;-69
2021/06/04 12:16:31;;;;;;;3.50;2.08;;;;;;;23.23;30.77;100606.45;1736795;81;20935;-68
2021/06/04 12:19:31;;;;;;;7.42;2.40;;;;;;;23.36;30.66;100614.88;1740073;82;20970;-70
2021/06/04 12:22:07;;;;;;;5.62;2.05;;;;;;;23.47;31.20;100609.80;1729806;82;20931;-70
2021/06/04 12:24:42;;;;;;;6.72;2.77;;;;;;;23.58;31.72;100618.90;1742395;82;21037;-68
2021/06/04 12:27:18;;;;;;;5.50;2.37;;;;;;;23.64;31.50;100616.08;1738742;82;21033;-68
2021/06/04 12:29:50;;;;;;;6.10;2.75;;;;;;;23.68;30.99;100621.43;1742294;81;21037;-70
2021/06/04 12:32:20;;;;;;;4.17;2.27;;;;;;;23.60;30.61;100616.89;1743601;82;21607;-71
2021/06/04 12:34:59;;;;;;;2.90;2.05;;;;;;;23.53;31.25;100619.36;1739469;82;20939;-69
2021/06/04 12:37:35;;;;;;;6.05;2.33;;;;;;;23.54;30.77;100622.86;1738687;82;20974;-71
2021/06/04 12:40:31;;;;;;;3.83;1.87;;;;;;;23.49;30.17;100619.30;1734282;82;21018;-70
2021/06/04 12:43:13;;;;;;;2.98;2.12;;;;;;;23.37;30.81;100616.54;1749625;82;20955;-68
2021/06/04 12:46:18;;;;;;;7.22;2.55;;;;;;;23.25;31.32;100619.92;1743908;82;21298;-68
2021/06/04 12:48:46;;;;;;;10.43;2.00;;;;;;;23.15;31.99;100620.53;1742258;82;21025;-68
2021/06/04 12:51:17;;;;;;;5.25;2.60;;;;;;;23.04;32.25;100619.92;1731193;82;20966;-71
2021/06/04 12:53:48;;;;;;;8.25;2.42;;;;;;;22.96;32.94;100618.02;1746661;82;21010;-71
2021/06/04 12:56:24;;;;;;;13.70;2.60;;;;;;;22.91;33.07;100611.83;1740938;81;20891;-67
2021/06/04 12:59:07;;;;;;;4.05;1.95;;;;;;;22.81;32.58;100611.05;1750227;82;21174;-68
2021/06/04 13:01:39;;;;;;;4.28;2.05;;;;;;;22.68;32.96;100605.76;1751020;82;20943;-68
2021/06/04 13:04:20;;;;;;;3.98;1.90;;;;;;;22.53;32.04;100598.30;1719982;82;21022;-69
2021/06/04 13:06:51;;;;;;;7.45;2.08;;;;;;;22.42;32.49;100609.11;1734923;82;21014;-70
2021/06/04 13:09:38;;;;;;;8.45;1.98;;;;;;;22.36;32.55;100603.59;1745246;82;20986;-68
2021/06/04 13:12:27;;;;;;;3.90;2.12;;;;;;;22.26;32.31;100607.13;1746881;82;21114;-69
2021/06/04 13:14:55;;;;;;;4.62;2.20;;;;;;;22.11;32.93;100602.44;1747410;82;20982;-68
2021/06/04 13:17:31;;;;;;;5.42;1.82;;;;;;;22.11;32.93;100602.44;1720043;82;20943;-69
2021/06/04 13:20:15;;;;;;;3.35;1.70;;;;;;;22.06;32.43;100610.83;1747462;82;21521;-70
2021/06/04 13:22:45;;;;;;;3.27;2.05;;;;;;;21.99;32.24;100604.92;1735686;82;20969;-68
2021/06/04 13:25:27;;;;;;;4.47;1.87;;;;;;;21.87;32.79;100605.09;1740991;82;21739;-71
2021/06/04 13:28:21;;;;;;;4.00;2.00;;;;;;;21.82;32.95;100597.22;1742360;81;21013;-69
2021/06/04 13:30:57;;;;;;;3.92;1.80;;;;;;;21.71;33.32;100596.90;1744493;82;21050;-69
2021/06/04 13:33:33;;;;;;;4.70;2.20;;;;;;;21.71;33.32;100596.90;1745326;82;21616;-70
2021/06/04 13:36:00;;;;;;;3.83;2.27;;;;;;;21.63;33.25;100604.23;1747032;82;26316;-67
2021/06/04 13:38:34;;;;;;;4.95;2.15;;;;;;;21.54;33.53;100601.63;1720647;82;21137;-68
2021/06/04 13:41:08;;;;;;;5.47;1.92;;;;;;;21.48;33.22;100596.41;1748353;82;20943;-68
2021/06/04 13:43:47;;;;;;;2.77;2.27;;;;;;;21.44;33.04;100593.70;1752655;81;20931;-69
2021/06/04 13:46:19;;;;;;;3.08;1.92;;;;;;;21.39;33.87;100591.12;1738910;82;21034;-68
2021/06/04 13:49:15;;;;;;;5.58;2.15;;;;;;;21.40;34.51;100594.13;1718325;83;20954;-67
2021/06/04 13:52:15;;;;;;;11.05;2.30;;;;;;;21.39;34.53;100591.12;1722512;82;21148;-70
2021/06/04 13:54:50;;;;;;;4.03;2.00;;;;;;;21.38;34.65;100593.42;1753243;81;20926;-70
2021/06/04 13:57:30;;;;;;;2.20;2.00;;;;;;;21.36;34.82;100596.70;1753158;82;20891;-70
2021/06/04 14:00:29;;;;;;;7.00;2.30;;;;;;;21.33;34.52;100589.03;1748867;82;21002;-66
